sensor_id;sensor_type;location;lat;lon;timestamp;P1;durP1;ratioP1;P2;durP2;ratioP2
49514;SDS011;35415;47.870;16.058;2023-12-28T00:01:00;3.03;;;1.88;;
49514;SDS011;35415;47.870;16.058;2023-12-28T00:03:32;3.45;;;1.90;;
49514;SDS011;35415;47.870;16.058;2023-12-28T00:05:59;3.97;;;1.73;;
49514;SDS011;35415;47.870;16.058;2023-12-28T00:08:26;2.38;;;1.70;;
49514;SDS011;35415;47.870;16.058;2023-12-28T00:10:54;3.97;;;2.40;;
49514;SDS011;35415;47.870;16.058;2023-12-28T00:13:21;2.55;;;1.45;;
49514;SDS011;35415;47.870;16.058;2023-12-28T00:15:51;2.42;;;2.13;;
49514;SDS011;35415;47.870;16.058;2023-12-28T00:18:18;5.50;;;3.15;;
49514;SDS011;35415;47.870;16.058;2023-12-28T00:20:47;4.93;;;2.88;;
49514;SDS011;35415;47.870;16.058;2023-12-28T00:23:14;4.90;;;2.28;;
49514;SDS011;35415;47.870;16.058;2023-12-28T00:25:42;4.28;;;2.35;;
49514;SDS011;35415;47.870;16.058;2023-12-28T00:28:09;4.15;;;2.65;;
49514;SDS011;35415;47.870;16.058;2023-12-28T00:30:37;3.97;;;2.63;;
49514;SDS011;35415;47.870;16.058;2023-12-28T00:33:04;6.20;;;2.70;;
49514;SDS011;35415;47.870;16.058;2023-12-28T00:35:31;3.13;;;2.10;;
49514;SDS011;35415;47.870;16.058;2023-12-28T00:38:00;3.88;;;2.10;;
49514;SDS011;35415;47.870;16.058;2023-12-28T00:40:27;3.72;;;2.13;;
49514;SDS011;35415;47.870;16.058;2023-12-28T00:42:56;6.55;;;2.58;;
49514;SDS011;35415;47.870;16.058;2023-12-28T00:45:26;3.67;;;2.10;;
49514;SDS011;35415;47.870;16.058;2023-12-28T00:47:53;3.35;;;2.08;;
49514;SDS011;35415;47.870;16.058;2023-12-28T00:50:22;5.90;;;3.17;;
49514;SDS011;35415;47.870;16.058;2023-12-28T00:52:52;4.00;;;2.03;;
49514;SDS011;35415;47.870;16.058;2023-12-28T00:55:21;3.72;;;2.30;;
49514;SDS011;35415;47.870;16.058;2023-12-28T00:57:48;3.03;;;2.08;;
49514;SDS011;35415;47.870;16.058;2023-12-28T01:00:16;3.58;;;2.03;;
49514;SDS011;35415;47.870;16.058;2023-12-28T01:02:43;3.25;;;2.17;;
49514;SDS011;35415;47.870;16.058;2023-12-28T01:05:12;5.05;;;2.63;;
49514;SDS011;35415;47.870;16.058;2023-12-28T01:07:39;4.00;;;1.92;;
49514;SDS011;35415;47.870;16.058;2023-12-28T01:10:10;4.22;;;2.45;;
49514;SDS011;35415;47.870;16.058;2023-12-28T01:12:38;2.13;;;1.67;;
49514;SDS011;35415;47.870;16.058;2023-12-28T01:15:06;2.50;;;1.45;;
49514;SDS011;35415;47.870;16.058;2023-12-28T01:17:34;4.68;;;2.00;;
49514;SDS011;35415;47.870;16.058;2023-12-28T01:20:01;2.83;;;1.80;;
49514;SDS011;35415;47.870;16.058;2023-12-28T01:22:29;3.85;;;2.08;;
49514;SDS011;35415;47.870;16.058;2023-12-28T01:24:59;2.28;;;1.38;;
49514;SDS011;35415;47.870;16.058;2023-12-28T01:27:27;2.90;;;1.95;;
49514;SDS011;35415;47.870;16.058;2023-12-28T01:30:00;4.03;;;2.30;;
49514;SDS011;35415;47.870;16.058;2023-12-28T01:32:27;3.78;;;2.63;;
49514;SDS011;35415;47.870;16.058;2023-12-28T01:35:03;2.22;;;1.40;;
49514;SDS011;35415;47.870;16.058;2023-12-28T01:37:32;3.35;;;2.00;;
49514;SDS011;35415;47.870;16.058;2023-12-28T01:39:59;4.70;;;2.28;;
49514;SDS011;35415;47.870;16.058;2023-12-28T01:42:28;4.95;;;2.03;;
49514;SDS011;35415;47.870;16.058;2023-12-28T01:44:58;3.65;;;2.88;;
49514;SDS011;35415;47.870;16.058;2023-12-28T01:47:28;4.67;;;2.07;;
49514;SDS011;35415;47.870;16.058;2023-12-28T01:49:56;3.55;;;1.88;;
49514;SDS011;35415;47.870;16.058;2023-12-28T01:52:25;5.18;;;2.47;;
49514;SDS011;35415;47.870;16.058;2023-12-28T01:54:53;3.42;;;2.38;;
49514;SDS011;35415;47.870;16.058;2023-12-28T01:57:21;3.58;;;2.00;;
49514;SDS011;35415;47.870;16.058;2023-12-28T01:59:52;3.35;;;1.88;;
49514;SDS011;35415;47.870;16.058;2023-12-28T02:02:23;4.63;;;1.83;;
49514;SDS011;35415;47.870;16.058;2023-12-28T02:04:52;3.97;;;2.00;;
49514;SDS011;35415;47.870;16.058;2023-12-28T02:07:20;3.45;;;2.00;;
49514;SDS011;35415;47.870;16.058;2023-12-28T02:09:51;3.80;;;1.85;;
49514;SDS011;35415;47.870;16.058;2023-12-28T02:12:18;3.28;;;2.28;;
49514;SDS011;35415;47.870;16.058;2023-12-28T02:14:48;12.25;;;2.47;;
49514;SDS011;35415;47.870;16.058;2023-12-28T02:17:17;3.95;;;2.30;;
49514;SDS011;35415;47.870;16.058;2023-12-28T02:19:52;2.78;;;2.05;;
49514;SDS011;35415;47.870;16.058;2023-12-28T02:22:23;2.65;;;1.80;;
49514;SDS011;35415;47.870;16.058;2023-12-28T02:25:02;3.58;;;1.83;;
49514;SDS011;35415;47.870;16.058;2023-12-28T02:27:34;3.33;;;2.05;;
49514;SDS011;35415;47.870;16.058;2023-12-28T02:30:04;2.65;;;1.70;;
49514;SDS011;35415;47.870;16.058;2023-12-28T02:32:35;3.30;;;1.50;;
49514;SDS011;35415;47.870;16.058;2023-12-28T02:35:17;3.97;;;2.00;;
49514;SDS011;35415;47.870;16.058;2023-12-28T02:37:50;2.60;;;1.85;;
49514;SDS011;35415;47.870;16.058;2023-12-28T02:40:21;3.20;;;1.67;;
49514;SDS011;35415;47.870;16.058;2023-12-28T02:42:51;2.47;;;1.65;;
49514;SDS011;35415;47.870;16.058;2023-12-28T02:45:18;3.90;;;1.65;;
49514;SDS011;35415;47.870;16.058;2023-12-28T02:47:46;3.08;;;1.77;;
49514;SDS011;35415;47.870;16.058;2023-12-28T02:50:13;2.85;;;1.50;;
49514;SDS011;35415;47.870;16.058;2023-12-28T02:52:40;2.55;;;1.48;;
49514;SDS011;35415;47.870;16.058;2023-12-28T02:55:07;2.83;;;1.67;;
49514;SDS011;35415;47.870;16.058;2023-12-28T02:57:37;4.13;;;2.38;;
49514;SDS011;35415;47.870;16.058;2023-12-28T03:00:05;4.00;;;1.70;;
49514;SDS011;35415;47.870;16.058;2023-12-28T03:02:34;2.55;;;1.38;;
49514;SDS011;35415;47.870;16.058;2023-12-28T03:05:02;2.88;;;1.75;;
49514;SDS011;35415;47.870;16.058;2023-12-28T03:07:31;3.22;;;1.92;;
49514;SDS011;35415;47.870;16.058;2023-12-28T03:09:58;2.67;;;1.50;;
49514;SDS011;35415;47.870;16.058;2023-12-28T03:12:29;2.83;;;1.63;;
49514;SDS011;35415;47.870;16.058;2023-12-28T03:14:58;2.13;;;1.30;;
49514;SDS011;35415;47.870;16.058;2023-12-28T03:17:26;3.15;;;1.67;;
49514;SDS011;35415;47.870;16.058;2023-12-28T03:19:54;2.35;;;1.60;;
49514;SDS011;35415;47.870;16.058;2023-12-28T03:22:21;2.47;;;1.52;;
49514;SDS011;35415;47.870;16.058;2023-12-28T03:24:49;2.65;;;1.38;;
49514;SDS011;35415;47.870;16.058;2023-12-28T03:27:19;4.25;;;1.60;;
49514;SDS011;35415;47.870;16.058;2023-12-28T03:29:47;3.35;;;1.60;;
49514;SDS011;35415;47.870;16.058;2023-12-28T03:32:16;3.10;;;1.48;;
49514;SDS011;35415;47.870;16.058;2023-12-28T03:34:43;2.72;;;1.50;;
49514;SDS011;35415;47.870;16.058;2023-12-28T03:37:10;5.53;;;3.30;;
49514;SDS011;35415;47.870;16.058;2023-12-28T03:39:38;1.75;;;1.30;;
49514;SDS011;35415;47.870;16.058;2023-12-28T03:42:05;3.75;;;1.45;;
49514;SDS011;35415;47.870;16.058;2023-12-28T03:44:33;2.42;;;1.25;;
49514;SDS011;35415;47.870;16.058;2023-12-28T03:47:00;2.58;;;1.52;;
49514;SDS011;35415;47.870;16.058;2023-12-28T03:49:29;1.50;;;1.40;;
49514;SDS011;35415;47.870;16.058;2023-12-28T03:51:56;2.17;;;1.38;;
49514;SDS011;35415;47.870;16.058;2023-12-28T03:54:27;2.17;;;1.25;;
49514;SDS011;35415;47.870;16.058;2023-12-28T03:56:54;3.92;;;2.13;;
49514;SDS011;35415;47.870;16.058;2023-12-28T03:59:24;2.70;;;1.75;;
49514;SDS011;35415;47.870;16.058;2023-12-28T04:01:51;2.05;;;1.45;;
49514;SDS011;35415;47.870;16.058;2023-12-28T04:04:19;4.32;;;1.65;;
49514;SDS011;35415;47.870;16.058;2023-12-28T04:06:48;2.92;;;2.00;;
49514;SDS011;35415;47.870;16.058;2023-12-28T04:09:17;2.83;;;1.65;;
49514;SDS011;35415;47.870;16.058;2023-12-28T04:11:44;3.83;;;1.55;;
49514;SDS011;35415;47.870;16.058;2023-12-28T04:14:15;3.67;;;1.52;;
49514;SDS011;35415;47.870;16.058;2023-12-28T04:16:42;2.17;;;1.50;;
49514;SDS011;35415;47.870;16.058;2023-12-28T04:19:09;1.98;;;1.30;;
49514;SDS011;35415;47.870;16.058;2023-12-28T04:21:37;2.05;;;1.70;;
49514;SDS011;35415;47.870;16.058;2023-12-28T04:24:09;2.35;;;1.35;;
49514;SDS011;35415;47.870;16.058;2023-12-28T04:26:39;1.60;;;1.30;;
49514;SDS011;35415;47.870;16.058;2023-12-28T04:29:07;5.05;;;1.77;;
49514;SDS011;35415;47.870;16.058;2023-12-28T04:31:39;1.73;;;1.25;;
49514;SDS011;35415;47.870;16.058;2023-12-28T04:34:07;1.48;;;1.20;;
49514;SDS011;35415;47.870;16.058;2023-12-28T04:36:39;3.10;;;1.55;;
49514;SDS011;35415;47.870;16.058;2023-12-28T04:39:09;1.30;;;0.88;;
49514;SDS011;35415;47.870;16.058;2023-12-28T04:41:36;2.13;;;1.30;;
49514;SDS011;35415;47.870;16.058;2023-12-28T04:44:03;1.70;;;0.88;;
49514;SDS011;35415;47.870;16.058;2023-12-28T04:46:31;2.35;;;0.93;;
49514;SDS011;35415;47.870;16.058;2023-12-28T04:48:58;2.60;;;1.20;;
49514;SDS011;35415;47.870;16.058;2023-12-28T04:51:25;2.42;;;1.45;;
49514;SDS011;35415;47.870;16.058;2023-12-28T04:53:53;2.05;;;1.42;;
49514;SDS011;35415;47.870;16.058;2023-12-28T04:56:21;2.15;;;1.33;;
49514;SDS011;35415;47.870;16.058;2023-12-28T04:58:48;2.38;;;0.90;;
49514;SDS011;35415;47.870;16.058;2023-12-28T05:01:16;2.17;;;1.27;;
49514;SDS011;35415;47.870;16.058;2023-12-28T05:03:43;3.22;;;1.15;;
49514;SDS011;35415;47.870;16.058;2023-12-28T05:06:11;1.42;;;1.15;;
49514;SDS011;35415;47.870;16.058;2023-12-28T05:08:38;1.83;;;1.00;;
49514;SDS011;35415;47.870;16.058;2023-12-28T05:11:05;1.33;;;0.88;;
49514;SDS011;35415;47.870;16.058;2023-12-28T05:13:34;1.98;;;0.77;;
49514;SDS011;35415;47.870;16.058;2023-12-28T05:16:01;2.53;;;1.30;;
49514;SDS011;35415;47.870;16.058;2023-12-28T05:18:32;1.38;;;1.02;;
49514;SDS011;35415;47.870;16.058;2023-12-28T05:20:59;4.28;;;1.33;;
49514;SDS011;35415;47.870;16.058;2023-12-28T05:23:26;0.88;;;0.80;;
49514;SDS011;35415;47.870;16.058;2023-12-28T05:25:53;1.50;;;1.10;;
49514;SDS011;35415;47.870;16.058;2023-12-28T05:28:21;1.17;;;1.08;;
49514;SDS011;35415;47.870;16.058;2023-12-28T05:30:49;1.33;;;0.80;;
49514;SDS011;35415;47.870;16.058;2023-12-28T05:33:17;2.65;;;1.20;;
49514;SDS011;35415;47.870;16.058;2023-12-28T05:35:45;2.85;;;1.30;;
49514;SDS011;35415;47.870;16.058;2023-12-28T05:38:12;2.65;;;1.23;;
49514;SDS011;35415;47.870;16.058;2023-12-28T05:40:39;2.63;;;1.23;;
49514;SDS011;35415;47.870;16.058;2023-12-28T05:43:06;3.13;;;1.42;;
49514;SDS011;35415;47.870;16.058;2023-12-28T05:45:34;1.30;;;0.98;;
49514;SDS011;35415;47.870;16.058;2023-12-28T05:48:03;2.00;;;1.27;;
49514;SDS011;35415;47.870;16.058;2023-12-28T05:50:30;1.77;;;1.20;;
49514;SDS011;35415;47.870;16.058;2023-12-28T05:52:58;2.30;;;1.42;;
49514;SDS011;35415;47.870;16.058;2023-12-28T05:55:25;4.13;;;1.70;;
49514;SDS011;35415;47.870;16.058;2023-12-28T05:57:52;2.10;;;1.40;;
49514;SDS011;35415;47.870;16.058;2023-12-28T06:00:20;2.70;;;1.90;;
49514;SDS011;35415;47.870;16.058;2023-12-28T06:02:47;3.20;;;1.48;;
49514;SDS011;35415;47.870;16.058;2023-12-28T06:05:18;2.17;;;1.55;;
49514;SDS011;35415;47.870;16.058;2023-12-28T06:07:46;2.92;;;1.50;;
49514;SDS011;35415;47.870;16.058;2023-12-28T06:10:14;7.88;;;3.28;;
49514;SDS011;35415;47.870;16.058;2023-12-28T06:12:41;2.75;;;1.48;;
49514;SDS011;35415;47.870;16.058;2023-12-28T06:15:09;1.95;;;1.40;;
49514;SDS011;35415;47.870;16.058;2023-12-28T06:17:36;2.35;;;1.38;;
49514;SDS011;35415;47.870;16.058;2023-12-28T06:20:07;2.63;;;1.70;;
49514;SDS011;35415;47.870;16.058;2023-12-28T06:22:37;1.08;;;0.80;;
49514;SDS011;35415;47.870;16.058;2023-12-28T06:25:05;1.80;;;1.35;;
49514;SDS011;35415;47.870;16.058;2023-12-28T06:27:33;2.42;;;1.63;;
49514;SDS011;35415;47.870;16.058;2023-12-28T06:30:00;2.30;;;1.30;;
49514;SDS011;35415;47.870;16.058;2023-12-28T06:32:28;2.85;;;1.60;;
49514;SDS011;35415;47.870;16.058;2023-12-28T06:34:58;3.45;;;1.48;;
49514;SDS011;35415;47.870;16.058;2023-12-28T06:37:25;4.53;;;1.30;;
49514;SDS011;35415;47.870;16.058;2023-12-28T06:39:55;3.38;;;1.77;;
49514;SDS011;35415;47.870;16.058;2023-12-28T06:42:22;1.75;;;1.40;;
49514;SDS011;35415;47.870;16.058;2023-12-28T06:44:50;2.88;;;1.60;;
49514;SDS011;35415;47.870;16.058;2023-12-28T06:47:17;2.55;;;1.50;;
49514;SDS011;35415;47.870;16.058;2023-12-28T06:49:44;2.72;;;1.83;;
49514;SDS011;35415;47.870;16.058;2023-12-28T06:52:13;2.90;;;1.73;;
49514;SDS011;35415;47.870;16.058;2023-12-28T06:54:41;2.20;;;1.65;;
49514;SDS011;35415;47.870;16.058;2023-12-28T06:57:13;3.00;;;1.95;;
49514;SDS011;35415;47.870;16.058;2023-12-28T06:59:42;3.03;;;1.58;;
49514;SDS011;35415;47.870;16.058;2023-12-28T07:02:09;4.32;;;1.73;;
49514;SDS011;35415;47.870;16.058;2023-12-28T07:04:37;1.95;;;1.30;;
49514;SDS011;35415;47.870;16.058;2023-12-28T07:07:04;3.40;;;1.65;;
49514;SDS011;35415;47.870;16.058;2023-12-28T07:09:34;2.25;;;1.33;;
49514;SDS011;35415;47.870;16.058;2023-12-28T07:12:01;1.75;;;1.52;;
49514;SDS011;35415;47.870;16.058;2023-12-28T07:17:42;3.95;;;1.70;;
49514;SDS011;35415;47.870;16.058;2023-12-28T07:20:09;5.93;;;1.80;;
49514;SDS011;35415;47.870;16.058;2023-12-28T07:22:37;2.58;;;1.67;;
49514;SDS011;35415;47.870;16.058;2023-12-28T07:25:05;2.75;;;1.85;;
49514;SDS011;35415;47.870;16.058;2023-12-28T07:27:33;4.53;;;1.70;;
49514;SDS011;35415;47.870;16.058;2023-12-28T07:30:02;2.60;;;1.88;;
49514;SDS011;35415;47.870;16.058;2023-12-28T07:32:30;2.47;;;1.50;;
49514;SDS011;35415;47.870;16.058;2023-12-28T07:35:00;5.50;;;1.90;;
49514;SDS011;35415;47.870;16.058;2023-12-28T07:37:27;4.05;;;2.22;;
49514;SDS011;35415;47.870;16.058;2023-12-28T07:39:55;3.65;;;2.15;;
49514;SDS011;35415;47.870;16.058;2023-12-28T07:42:23;3.13;;;1.70;;
49514;SDS011;35415;47.870;16.058;2023-12-28T07:44:50;2.22;;;1.70;;
49514;SDS011;35415;47.870;16.058;2023-12-28T07:47:17;6.50;;;1.83;;
49514;SDS011;35415;47.870;16.058;2023-12-28T07:49:44;3.53;;;2.15;;
49514;SDS011;35415;47.870;16.058;2023-12-28T07:52:14;3.22;;;1.83;;
49514;SDS011;35415;47.870;16.058;2023-12-28T07:54:41;3.28;;;2.20;;
49514;SDS011;35415;47.870;16.058;2023-12-28T07:57:08;3.90;;;2.30;;
49514;SDS011;35415;47.870;16.058;2023-12-28T07:59:38;3.28;;;1.80;;
49514;SDS011;35415;47.870;16.058;2023-12-28T08:02:05;4.00;;;2.33;;
49514;SDS011;35415;47.870;16.058;2023-12-28T08:04:35;2.45;;;1.70;;
49514;SDS011;35415;47.870;16.058;2023-12-28T08:07:02;3.08;;;2.10;;
49514;SDS011;35415;47.870;16.058;2023-12-28T08:09:33;3.58;;;2.42;;
49514;SDS011;35415;47.870;16.058;2023-12-28T08:12:01;3.60;;;2.55;;
49514;SDS011;35415;47.870;16.058;2023-12-28T08:14:29;6.90;;;3.03;;
49514;SDS011;35415;47.870;16.058;2023-12-28T08:16:56;7.30;;;3.20;;
49514;SDS011;35415;47.870;16.058;2023-12-28T08:19:26;5.80;;;2.85;;
49514;SDS011;35415;47.870;16.058;2023-12-28T08:21:54;6.95;;;3.83;;
49514;SDS011;35415;47.870;16.058;2023-12-28T08:24:23;6.82;;;3.20;;
49514;SDS011;35415;47.870;16.058;2023-12-28T08:26:52;5.47;;;3.42;;
49514;SDS011;35415;47.870;16.058;2023-12-28T08:29:23;4.75;;;2.65;;
49514;SDS011;35415;47.870;16.058;2023-12-28T08:31:50;5.43;;;2.70;;
49514;SDS011;35415;47.870;16.058;2023-12-28T08:34:18;5.60;;;2.80;;
49514;SDS011;35415;47.870;16.058;2023-12-28T08:36:45;5.45;;;2.58;;
49514;SDS011;35415;47.870;16.058;2023-12-28T08:39:12;36.22;;;7.25;;
49514;SDS011;35415;47.870;16.058;2023-12-28T08:41:40;11.60;;;3.22;;
49514;SDS011;35415;47.870;16.058;2023-12-28T08:44:09;6.40;;;2.65;;
49514;SDS011;35415;47.870;16.058;2023-12-28T08:46:37;3.92;;;2.35;;
49514;SDS011;35415;47.870;16.058;2023-12-28T08:49:04;8.13;;;2.92;;
49514;SDS011;35415;47.870;16.058;2023-12-28T08:51:32;3.90;;;2.30;;
49514;SDS011;35415;47.870;16.058;2023-12-28T08:53:59;19.33;;;7.63;;
49514;SDS011;35415;47.870;16.058;2023-12-28T08:56:26;20.15;;;9.65;;
49514;SDS011;35415;47.870;16.058;2023-12-28T08:58:55;11.93;;;7.10;;
49514;SDS011;35415;47.870;16.058;2023-12-28T09:01:24;23.10;;;15.63;;
49514;SDS011;35415;47.870;16.058;2023-12-28T09:03:52;8.75;;;4.43;;
49514;SDS011;35415;47.870;16.058;2023-12-28T09:06:20;9.77;;;4.07;;
49514;SDS011;35415;47.870;16.058;2023-12-28T09:08:49;6.78;;;4.57;;
49514;SDS011;35415;47.870;16.058;2023-12-28T09:11:18;11.05;;;4.40;;
49514;SDS011;35415;47.870;16.058;2023-12-28T09:13:46;4.90;;;3.22;;
49514;SDS011;35415;47.870;16.058;2023-12-28T09:16:13;8.13;;;3.53;;
49514;SDS011;35415;47.870;16.058;2023-12-28T09:18:43;5.25;;;2.70;;
49514;SDS011;35415;47.870;16.058;2023-12-28T09:21:10;5.10;;;2.60;;
49514;SDS011;35415;47.870;16.058;2023-12-28T09:23:38;3.92;;;2.28;;
49514;SDS011;35415;47.870;16.058;2023-12-28T09:26:07;8.27;;;2.50;;
49514;SDS011;35415;47.870;16.058;2023-12-28T09:28:34;9.05;;;3.78;;
49514;SDS011;35415;47.870;16.058;2023-12-28T09:31:02;13.07;;;3.13;;
49514;SDS011;35415;47.870;16.058;2023-12-28T09:33:30;9.00;;;2.42;;
49514;SDS011;35415;47.870;16.058;2023-12-28T09:36:04;7.00;;;2.60;;
49514;SDS011;35415;47.870;16.058;2023-12-28T09:38:33;12.27;;;2.63;;
49514;SDS011;35415;47.870;16.058;2023-12-28T09:41:11;8.43;;;3.45;;
49514;SDS011;35415;47.870;16.058;2023-12-28T09:43:41;9.85;;;3.05;;
49514;SDS011;35415;47.870;16.058;2023-12-28T09:46:17;6.30;;;2.60;;
49514;SDS011;35415;47.870;16.058;2023-12-28T09:48:45;6.80;;;2.50;;
49514;SDS011;35415;47.870;16.058;2023-12-28T09:51:14;12.38;;;2.97;;
49514;SDS011;35415;47.870;16.058;2023-12-28T09:53:41;6.00;;;2.50;;
49514;SDS011;35415;47.870;16.058;2023-12-28T09:56:13;4.30;;;2.53;;
49514;SDS011;35415;47.870;16.058;2023-12-28T09:58:40;10.65;;;3.08;;
49514;SDS011;35415;47.870;16.058;2023-12-28T10:01:09;11.90;;;3.50;;
49514;SDS011;35415;47.870;16.058;2023-12-28T10:03:37;11.02;;;2.53;;
49514;SDS011;35415;47.870;16.058;2023-12-28T10:06:04;6.00;;;2.50;;
49514;SDS011;35415;47.870;16.058;2023-12-28T10:08:33;10.10;;;2.50;;
49514;SDS011;35415;47.870;16.058;2023-12-28T10:11:02;7.53;;;2.70;;
49514;SDS011;35415;47.870;16.058;2023-12-28T10:13:32;6.10;;;3.78;;
49514;SDS011;35415;47.870;16.058;2023-12-28T10:16:00;7.10;;;4.05;;
49514;SDS011;35415;47.870;16.058;2023-12-28T10:18:28;6.53;;;2.88;;
49514;SDS011;35415;47.870;16.058;2023-12-28T10:20:56;10.20;;;3.05;;
49514;SDS011;35415;47.870;16.058;2023-12-28T10:23:23;16.95;;;3.80;;
49514;SDS011;35415;47.870;16.058;2023-12-28T10:25:55;7.22;;;2.63;;
49514;SDS011;35415;47.870;16.058;2023-12-28T10:28:23;4.50;;;2.65;;
49514;SDS011;35415;47.870;16.058;2023-12-28T10:30:56;8.30;;;2.97;;
49514;SDS011;35415;47.870;16.058;2023-12-28T10:33:23;4.28;;;2.53;;
49514;SDS011;35415;47.870;16.058;2023-12-28T10:35:51;13.35;;;5.50;;
49514;SDS011;35415;47.870;16.058;2023-12-28T10:38:19;10.57;;;5.80;;
49514;SDS011;35415;47.870;16.058;2023-12-28T10:40:46;11.88;;;5.68;;
49514;SDS011;35415;47.870;16.058;2023-12-28T10:43:17;16.63;;;9.18;;
49514;SDS011;35415;47.870;16.058;2023-12-28T10:45:50;10.38;;;7.07;;
49514;SDS011;35415;47.870;16.058;2023-12-28T10:48:21;11.63;;;6.82;;
49514;SDS011;35415;47.870;16.058;2023-12-28T10:50:55;12.57;;;6.90;;
49514;SDS011;35415;47.870;16.058;2023-12-28T10:53:30;15.77;;;7.43;;
49514;SDS011;35415;47.870;16.058;2023-12-28T10:56:10;12.68;;;7.82;;
49514;SDS011;35415;47.870;16.058;2023-12-28T11:01:17;8.50;;;5.55;;
49514;SDS011;35415;47.870;16.058;2023-12-28T11:03:51;12.27;;;6.57;;
49514;SDS011;35415;47.870;16.058;2023-12-28T11:06:25;14.02;;;7.35;;
49514;SDS011;35415;47.870;16.058;2023-12-28T11:08:54;12.93;;;7.00;;
49514;SDS011;35415;47.870;16.058;2023-12-28T11:11:43;14.25;;;7.32;;
49514;SDS011;35415;47.870;16.058;2023-12-28T11:14:33;10.35;;;6.32;;
49514;SDS011;35415;47.870;16.058;2023-12-28T11:17:21;9.57;;;6.32;;
49514;SDS011;35415;47.870;16.058;2023-12-28T11:20:13;11.00;;;6.80;;
49514;SDS011;35415;47.870;16.058;2023-12-28T11:23:01;11.15;;;6.75;;
49514;SDS011;35415;47.870;16.058;2023-12-28T11:25:48;11.63;;;7.18;;
49514;SDS011;35415;47.870;16.058;2023-12-28T11:28:38;11.32;;;6.63;;
49514;SDS011;35415;47.870;16.058;2023-12-28T11:31:31;10.80;;;5.60;;
49514;SDS011;35415;47.870;16.058;2023-12-28T11:34:24;9.40;;;6.13;;
49514;SDS011;35415;47.870;16.058;2023-12-28T11:37:12;9.35;;;5.85;;
49514;SDS011;35415;47.870;16.058;2023-12-28T11:40:09;11.73;;;6.25;;
49514;SDS011;35415;47.870;16.058;2023-12-28T11:42:58;11.23;;;6.40;;
49514;SDS011;35415;47.870;16.058;2023-12-28T11:45:49;11.05;;;6.97;;
49514;SDS011;35415;47.870;16.058;2023-12-28T11:48:39;10.87;;;6.90;;
49514;SDS011;35415;47.870;16.058;2023-12-28T11:51:27;11.57;;;7.53;;
49514;SDS011;35415;47.870;16.058;2023-12-28T11:54:12;12.85;;;6.63;;
49514;SDS011;35415;47.870;16.058;2023-12-28T11:56:40;14.55;;;8.23;;
49514;SDS011;35415;47.870;16.058;2023-12-28T11:59:10;13.43;;;7.05;;
49514;SDS011;35415;47.870;16.058;2023-12-28T12:01:37;13.50;;;7.57;;
49514;SDS011;35415;47.870;16.058;2023-12-28T12:04:07;11.50;;;6.65;;
49514;SDS011;35415;47.870;16.058;2023-12-28T12:06:34;13.73;;;7.10;;
49514;SDS011;35415;47.870;16.058;2023-12-28T12:09:06;13.70;;;7.30;;
49514;SDS011;35415;47.870;16.058;2023-12-28T12:11:34;11.23;;;7.15;;
49514;SDS011;35415;47.870;16.058;2023-12-28T12:14:02;13.55;;;7.55;;
49514;SDS011;35415;47.870;16.058;2023-12-28T12:16:34;14.63;;;8.30;;
49514;SDS011;35415;47.870;16.058;2023-12-28T12:19:02;14.77;;;8.82;;
49514;SDS011;35415;47.870;16.058;2023-12-28T12:21:32;10.23;;;6.32;;
49514;SDS011;35415;47.870;16.058;2023-12-28T12:23:59;9.00;;;5.80;;
49514;SDS011;35415;47.870;16.058;2023-12-28T12:26:30;9.60;;;5.72;;
49514;SDS011;35415;47.870;16.058;2023-12-28T12:28:57;10.65;;;5.85;;
49514;SDS011;35415;47.870;16.058;2023-12-28T12:31:26;9.57;;;5.35;;
49514;SDS011;35415;47.870;16.058;2023-12-28T12:33:55;10.00;;;6.53;;
49514;SDS011;35415;47.870;16.058;2023-12-28T12:36:25;10.02;;;5.65;;
49514;SDS011;35415;47.870;16.058;2023-12-28T12:38:54;7.75;;;5.22;;
49514;SDS011;35415;47.870;16.058;2023-12-28T12:41:23;8.25;;;5.70;;
49514;SDS011;35415;47.870;16.058;2023-12-28T12:43:50;6.95;;;5.63;;
49514;SDS011;35415;47.870;16.058;2023-12-28T12:46:17;10.90;;;6.20;;
49514;SDS011;35415;47.870;16.058;2023-12-28T12:48:53;10.95;;;6.32;;
49514;SDS011;35415;47.870;16.058;2023-12-28T12:51:25;9.90;;;5.63;;
49514;SDS011;35415;47.870;16.058;2023-12-28T12:53:57;10.40;;;5.70;;
49514;SDS011;35415;47.870;16.058;2023-12-28T12:56:28;9.40;;;5.63;;
49514;SDS011;35415;47.870;16.058;2023-12-28T12:58:56;9.43;;;5.60;;
49514;SDS011;35415;47.870;16.058;2023-12-28T13:01:24;7.85;;;5.28;;
49514;SDS011;35415;47.870;16.058;2023-12-28T13:03:51;8.73;;;5.43;;
49514;SDS011;35415;47.870;16.058;2023-12-28T13:06:19;10.20;;;5.50;;
49514;SDS011;35415;47.870;16.058;2023-12-28T13:08:48;10.30;;;5.88;;
49514;SDS011;35415;47.870;16.058;2023-12-28T13:11:17;10.10;;;5.60;;
49514;SDS011;35415;47.870;16.058;2023-12-28T13:13:48;9.75;;;4.63;;
49514;SDS011;35415;47.870;16.058;2023-12-28T13:16:16;8.30;;;4.70;;
49514;SDS011;35415;47.870;16.058;2023-12-28T13:18:43;8.60;;;4.40;;
49514;SDS011;35415;47.870;16.058;2023-12-28T13:21:11;8.15;;;5.00;;
49514;SDS011;35415;47.870;16.058;2023-12-28T13:23:41;10.35;;;4.88;;
49514;SDS011;35415;47.870;16.058;2023-12-28T13:26:08;10.93;;;6.18;;
49514;SDS011;35415;47.870;16.058;2023-12-28T13:28:37;11.00;;;6.45;;
49514;SDS011;35415;47.870;16.058;2023-12-28T13:31:04;12.07;;;6.22;;
49514;SDS011;35415;47.870;16.058;2023-12-28T13:33:32;8.43;;;5.03;;
49514;SDS011;35415;47.870;16.058;2023-12-28T13:35:59;8.13;;;4.82;;
49514;SDS011;35415;47.870;16.058;2023-12-28T13:38:26;9.68;;;5.05;;
49514;SDS011;35415;47.870;16.058;2023-12-28T13:40:54;9.10;;;5.75;;
49514;SDS011;35415;47.870;16.058;2023-12-28T13:43:21;7.47;;;5.35;;
49514;SDS011;35415;47.870;16.058;2023-12-28T13:45:52;8.95;;;5.13;;
49514;SDS011;35415;47.870;16.058;2023-12-28T13:48:19;9.32;;;4.88;;
49514;SDS011;35415;47.870;16.058;2023-12-28T13:50:48;8.98;;;5.03;;
49514;SDS011;35415;47.870;16.058;2023-12-28T13:53:16;10.65;;;5.57;;
49514;SDS011;35415;47.870;16.058;2023-12-28T13:55:46;10.38;;;6.43;;
49514;SDS011;35415;47.870;16.058;2023-12-28T13:58:15;13.80;;;6.70;;
49514;SDS011;35415;47.870;16.058;2023-12-28T14:00:42;12.38;;;7.00;;
49514;SDS011;35415;47.870;16.058;2023-12-28T14:03:11;12.02;;;6.53;;
49514;SDS011;35415;47.870;16.058;2023-12-28T14:05:41;11.57;;;5.87;;
49514;SDS011;35415;47.870;16.058;2023-12-28T14:08:09;42.45;;;17.73;;
49514;SDS011;35415;47.870;16.058;2023-12-28T14:10:36;26.17;;;10.25;;
49514;SDS011;35415;47.870;16.058;2023-12-28T14:13:04;18.52;;;9.43;;
49514;SDS011;35415;47.870;16.058;2023-12-28T14:15:35;25.25;;;11.10;;
49514;SDS011;35415;47.870;16.058;2023-12-28T14:18:03;21.80;;;11.25;;
49514;SDS011;35415;47.870;16.058;2023-12-28T14:20:33;22.98;;;11.40;;
49514;SDS011;35415;47.870;16.058;2023-12-28T14:23:01;39.50;;;17.92;;
49514;SDS011;35415;47.870;16.058;2023-12-28T14:25:29;33.58;;;15.77;;
49514;SDS011;35415;47.870;16.058;2023-12-28T14:27:57;29.48;;;14.13;;
49514;SDS011;35415;47.870;16.058;2023-12-28T14:30:25;18.60;;;9.05;;
49514;SDS011;35415;47.870;16.058;2023-12-28T14:32:53;9.05;;;4.15;;
49514;SDS011;35415;47.870;16.058;2023-12-28T14:35:21;10.82;;;6.25;;
49514;SDS011;35415;47.870;16.058;2023-12-28T14:37:52;17.10;;;9.05;;
49514;SDS011;35415;47.870;16.058;2023-12-28T14:40:19;13.25;;;7.75;;
49514;SDS011;35415;47.870;16.058;2023-12-28T14:42:46;16.27;;;8.55;;
49514;SDS011;35415;47.870;16.058;2023-12-28T14:45:14;13.52;;;7.60;;
49514;SDS011;35415;47.870;16.058;2023-12-28T14:47:41;16.33;;;8.23;;
49514;SDS011;35415;47.870;16.058;2023-12-28T14:50:12;12.68;;;6.97;;